createdAt,value
2019-05-23T00:01:34.158Z,97233.00
2019-05-23T00:04:06.440Z,97237.00
2019-05-23T00:06:37.761Z,97236.00
2019-05-23T00:09:08.360Z,97235.00
2019-05-23T00:11:58.158Z,97235.00
2019-05-23T00:14:34.043Z,97236.00
2019-05-23T00:17:04.323Z,97240.00
2019-05-23T00:19:34.887Z,97233.00
2019-05-23T00:22:06.687Z,97234.00
2019-05-23T00:24:37.183Z,97231.00
2019-05-23T00:27:07.165Z,97241.00
2019-05-23T00:29:40.434Z,97230.00
2019-05-23T00:32:23.730Z,97234.00
2019-05-23T00:34:54.931Z,97228.00
2019-05-23T00:37:25.889Z,97230.00
2019-05-23T00:39:56.969Z,97234.00
2019-05-23T00:42:27.450Z,97232.00
2019-05-23T00:44:58.895Z,97233.00
2019-05-23T00:47:30.689Z,97234.00
2019-05-23T00:50:02.019Z,97231.00
2019-05-23T00:52:32.256Z,97230.00
2019-05-23T00:55:03.576Z,97226.00
2019-05-23T00:57:33.457Z,97236.00
2019-05-23T01:00:05.497Z,97236.00
2019-05-23T01:02:35.622Z,97231.00
2019-05-23T01:05:08.977Z,97236.00
2019-05-23T01:07:38.604Z,97238.00
2019-05-23T01:10:09.940Z,97244.00
2019-05-23T01:12:40.544Z,97246.00
2019-05-23T01:15:11.024Z,97249.00
2019-05-23T01:17:41.380Z,97244.00
2019-05-23T01:20:13.547Z,97239.00
2019-05-23T01:22:43.670Z,97247.00
2019-05-23T01:25:16.904Z,97241.00
2019-05-23T01:27:46.178Z,97239.00
2019-05-23T01:30:17.752Z,97243.00
2019-05-23T01:32:52.191Z,97239.00
2019-05-23T01:35:24.117Z,97238.00
2019-05-23T01:37:54.230Z,97254.00
2019-05-23T01:40:24.950Z,97244.00
2019-05-23T01:42:56.035Z,97245.00
2019-05-23T01:45:27.236Z,97252.00
2019-05-23T01:47:58.421Z,97259.00
2019-05-23T01:50:28.683Z,97259.00
2019-05-23T01:52:59.873Z,97256.00
2019-05-23T01:55:29.514Z,97264.00
2019-05-23T01:57:59.641Z,97266.00
2019-05-23T02:00:31.079Z,97258.00
2019-05-23T02:03:01.317Z,97260.00
2019-05-23T02:05:32.402Z,97247.00
2019-05-23T02:08:03.672Z,97259.00
2019-05-23T02:10:33.839Z,97261.00
2019-05-23T02:13:04.249Z,97260.00
2019-05-23T02:15:34.924Z,97262.00
2019-05-23T02:18:05.045Z,97272.00
2019-05-23T02:20:36.017Z,97266.00
2019-05-23T02:23:07.688Z,97261.00
2019-05-23T02:25:38.528Z,97272.00
2019-05-23T02:28:09.245Z,97260.00
2019-05-23T02:30:39.729Z,97266.00
2019-05-23T02:33:10.330Z,97255.00
2019-05-23T02:35:40.595Z,97255.00
2019-05-23T02:38:13.104Z,97262.00
2019-05-23T02:41:03.608Z,97256.00
2019-05-23T02:43:36.018Z,97247.00
2019-05-23T02:46:08.656Z,97243.00
2019-05-23T02:48:46.812Z,97254.00
2019-05-23T02:51:26.656Z,97246.00
2019-05-23T02:53:58.813Z,97248.00
2019-05-23T02:56:33.502Z,97246.00
2019-05-23T02:59:13.698Z,97252.00
2019-05-23T03:02:39.990Z,97249.00
2019-05-23T03:05:12.261Z,97256.00
2019-05-23T03:07:42.740Z,97253.00
2019-05-23T03:10:13.825Z,97240.00
2019-05-23T03:12:46.468Z,97245.00
2019-05-23T03:15:17.548Z,97253.00
2019-05-23T03:17:50.903Z,97252.00
2019-05-23T03:20:21.993Z,97245.00
2019-05-23T03:23:06.624Z,97254.00
2019-05-23T03:25:41.450Z,97253.00
2019-05-23T03:28:13.122Z,97252.00
2019-05-23T03:30:48.097Z,97240.00
2019-05-23T03:33:17.912Z,97248.00
2019-05-23T03:35:52.227Z,97241.00
2019-05-23T03:38:22.711Z,97246.00
2019-05-23T03:40:52.608Z,97255.00
2019-05-23T03:43:22.727Z,97259.00
2019-05-23T03:45:54.512Z,97259.00
2019-05-23T03:48:25.966Z,97247.00
2019-05-23T03:50:57.512Z,97260.00
2019-05-23T03:53:28.840Z,97260.00
2019-05-23T03:55:59.883Z,97267.00
2019-05-23T03:58:30.274Z,97259.00
2019-05-23T04:01:01.623Z,97261.00
2019-05-23T04:03:31.716Z,97266.00
2019-05-23T04:06:02.442Z,97264.00
2019-05-23T04:08:32.543Z,97265.00
2019-05-23T04:11:02.329Z,97257.00
2019-05-23T04:13:32.685Z,97253.00
2019-05-23T04:16:02.924Z,97264.00
2019-05-23T04:18:33.523Z,97266.00
2019-05-23T04:21:03.641Z,97269.00
2019-05-23T04:23:33.527Z,97266.00
2019-05-23T04:26:03.882Z,97260.00
2019-05-23T04:28:33.533Z,97264.00
2019-05-23T04:31:05.211Z,97269.00
2019-05-23T04:33:35.090Z,97264.00
2019-05-23T04:36:05.089Z,97264.00
2019-05-23T04:38:36.345Z,97265.00
2019-05-23T04:41:06.771Z,97262.00
2019-05-23T04:43:36.654Z,97255.00
2019-05-23T04:46:07.761Z,97267.00
2019-05-23T04:48:37.980Z,97274.00
2019-05-23T04:51:09.415Z,97269.00
2019-05-23T04:53:39.535Z,97275.00
2019-05-23T04:56:10.494Z,97270.00
2019-05-23T04:58:41.096Z,97282.00
2019-05-23T05:01:11.336Z,97277.00
2019-05-23T05:03:43.028Z,97284.00
2019-05-23T05:06:13.021Z,97290.00
2019-05-23T05:08:43.621Z,97275.00
2019-05-23T05:11:13.983Z,97282.00
2019-05-23T05:13:44.582Z,97283.00
2019-05-23T05:16:15.084Z,97289.00
2019-05-23T05:18:45.187Z,97291.00
2019-05-23T05:21:15.798Z,97302.00
2019-05-23T05:23:46.026Z,97303.00
2019-05-23T05:26:22.506Z,97305.00
2019-05-23T05:28:53.378Z,97308.00
2019-05-23T05:31:23.498Z,97306.00
2019-05-23T05:33:53.587Z,97309.00
2019-05-23T05:36:23.838Z,97322.00
2019-05-23T05:38:53.947Z,97324.00
2019-05-23T05:41:24.191Z,97329.00
2019-05-23T05:43:55.153Z,97321.00
2019-05-23T05:46:25.513Z,97322.00
2019-05-23T05:48:55.993Z,97326.00
2019-05-23T05:51:25.996Z,97336.00
2019-05-23T05:53:56.016Z,97337.00
2019-05-23T05:56:25.760Z,97330.00
2019-05-23T05:58:55.879Z,97334.00
2019-05-23T06:01:33.816Z,97335.00
2019-05-23T06:03:57.920Z,97339.00
2019-05-23T06:06:50.091Z,97347.00
2019-05-23T06:09:21.318Z,97345.00
2019-05-23T06:11:51.437Z,97347.00
2019-05-23T06:14:21.562Z,97348.00
2019-05-23T06:16:53.123Z,97350.00
2019-05-23T06:19:23.241Z,97351.00
2019-05-23T06:21:53.961Z,97347.00
2019-05-23T06:24:42.879Z,97355.00
2019-05-23T06:26:55.768Z,97347.00
2019-05-23T06:29:26.011Z,97352.00
2019-05-23T06:31:56.970Z,97354.00
2019-05-23T06:34:27.448Z,97343.00
2019-05-23T06:36:58.169Z,97346.00
2019-05-23T06:39:28.170Z,97357.00
2019-05-23T06:41:58.410Z,97357.00
2019-05-23T06:44:28.411Z,97357.00
2019-05-23T06:46:59.044Z,97357.00
2019-05-23T06:49:29.735Z,97356.00
2019-05-23T06:51:59.853Z,97353.00
2019-05-23T06:54:30.212Z,97355.00
2019-05-23T06:57:00.333Z,97363.00
2019-05-23T06:59:30.454Z,97358.00
2019-05-23T07:02:01.173Z,97366.00
2019-05-23T07:04:31.536Z,97369.00
2019-05-23T07:07:02.501Z,97363.00
2019-05-23T07:09:32.742Z,97362.00
2019-05-23T07:12:02.983Z,97356.00
2019-05-23T07:14:32.738Z,97361.00
2019-05-23T07:17:02.863Z,97365.00
2019-05-23T07:19:33.463Z,97367.00
2019-05-23T07:22:03.587Z,97358.00
2019-05-23T07:24:34.311Z,97361.00
2019-05-23T07:27:04.190Z,97358.00
2019-05-23T07:29:35.644Z,97359.00
2019-05-23T07:32:06.828Z,97359.00
2019-05-23T07:34:37.186Z,97358.00
2019-05-23T07:37:07.545Z,97351.00
2019-05-23T07:39:37.791Z,97356.00
2019-05-23T07:42:08.630Z,97355.00
2019-05-23T07:44:47.881Z,97355.00
2019-05-23T07:47:12.469Z,97352.00
2019-05-23T07:49:42.489Z,97341.00
2019-05-23T07:52:12.256Z,97350.00
2019-05-23T07:54:52.439Z,97344.00
2019-05-23T07:57:23.758Z,97350.00
2019-05-23T07:59:54.595Z,97347.00
2019-05-23T08:02:35.282Z,97345.00
2019-05-23T08:05:07.793Z,97339.00
2019-05-23T08:07:38.637Z,97351.00
2019-05-23T08:10:09.356Z,97349.00
2019-05-23T08:12:39.715Z,97343.00
2019-05-23T08:15:10.559Z,97338.00
2019-05-23T08:17:40.688Z,97338.00
2019-05-23T08:20:13.802Z,97342.00
2019-05-23T08:22:43.197Z,97348.00
2019-05-23T08:25:13.206Z,97347.00
2019-05-23T08:27:43.333Z,97356.00
2019-05-23T08:30:13.805Z,97347.00
2019-05-23T08:32:44.525Z,97349.00
2019-05-23T08:35:17.784Z,97343.00
2019-05-23T08:37:46.805Z,97348.00
2019-05-23T08:40:19.572Z,97345.00
2019-05-23T08:42:49.691Z,97343.00
2019-05-23T08:45:19.808Z,97345.00
2019-05-23T08:47:49.935Z,97354.00
2019-05-23T08:50:21.775Z,97338.00
2019-05-23T08:52:51.732Z,97333.00
2019-05-23T08:55:25.571Z,97335.00
2019-05-23T08:57:57.014Z,97331.00
2019-05-23T09:00:28.703Z,97328.00
2019-05-23T09:02:59.362Z,97326.00
2019-05-23T09:05:32.054Z,97324.00
2019-05-23T09:08:02.057Z,97330.00
2019-05-23T09:10:33.136Z,97322.00
2019-05-23T09:13:03.142Z,97322.00
2019-05-23T09:15:33.257Z,97329.00
2019-05-23T09:18:03.766Z,97323.00
2019-05-23T09:20:34.701Z,97330.00
2019-05-23T09:23:04.582Z,97336.00
2019-05-23T09:25:34.822Z,97323.00
2019-05-23T09:28:05.903Z,97327.00
2019-05-23T09:30:36.383Z,97319.00
2019-05-23T09:33:07.583Z,97316.00
2019-05-23T09:35:37.945Z,97315.00
2019-05-23T09:38:07.826Z,97313.00
2019-05-23T09:40:37.705Z,97312.00
2019-05-23T09:43:08.427Z,97318.00
2019-05-23T09:45:38.672Z,97311.00
2019-05-23T09:48:08.681Z,97300.00
2019-05-23T09:50:38.787Z,97303.00
2019-05-23T09:53:08.788Z,97302.00
2019-05-23T09:55:38.795Z,97317.00
2019-05-23T09:58:09.167Z,97309.00
2019-05-23T10:00:39.516Z,97304.00
2019-05-23T10:03:09.634Z,97311.00
2019-05-23T10:05:43.287Z,97306.00
2019-05-23T10:08:11.552Z,97301.00
2019-05-23T10:10:41.829Z,97308.00
2019-05-23T10:13:12.039Z,97303.00
2019-05-23T10:15:43.968Z,97297.00
2019-05-23T10:18:18.283Z,97294.00
2019-05-23T10:20:48.647Z,97292.00
2019-05-23T10:23:18.341Z,97288.00
2019-05-23T10:25:48.523Z,97286.00
2019-05-23T10:28:18.423Z,97301.00
2019-05-23T10:30:48.283Z,97295.00
2019-05-23T10:33:18.525Z,97297.00
2019-05-23T10:35:59.959Z,97290.00
2019-05-23T10:38:20.209Z,97291.00
2019-05-23T10:40:50.331Z,97297.00
2019-05-23T10:43:20.095Z,97291.00
2019-05-23T10:45:52.134Z,97284.00
2019-05-23T10:48:22.849Z,97278.00
2019-05-23T10:50:53.327Z,97274.00
2019-05-23T10:53:22.968Z,97276.00
2019-05-23T10:55:54.724Z,97279.00
2019-05-23T10:58:24.784Z,97285.00
2019-05-23T11:00:55.138Z,97271.00
2019-05-23T11:03:25.853Z,97272.00
2019-05-23T11:05:55.856Z,97267.00
2019-05-23T11:08:29.153Z,97264.00
2019-05-23T11:10:58.151Z,97264.00
2019-05-23T11:13:28.020Z,97258.00
2019-05-23T11:15:57.900Z,97261.00
2019-05-23T11:18:28.017Z,97257.00
2019-05-23T11:20:57.899Z,97259.00
2019-05-23T11:23:29.591Z,97257.00
2019-05-23T11:26:01.357Z,97255.00
2019-05-23T11:28:33.434Z,97255.00
2019-05-23T11:31:03.908Z,97253.00
2019-05-23T11:33:34.029Z,97249.00
2019-05-23T11:36:03.908Z,97244.00
2019-05-23T11:38:33.783Z,97238.00
2019-05-23T11:41:04.161Z,97244.00
2019-05-23T11:43:34.268Z,97236.00
2019-05-23T11:46:20.952Z,97231.00
2019-05-23T11:48:51.719Z,97234.00
2019-05-23T11:51:25.233Z,97230.00
2019-05-23T11:54:06.586Z,97235.00
2019-05-23T11:56:25.870Z,97224.00
2019-05-23T11:58:55.512Z,97229.00
2019-05-23T12:01:30.674Z,97222.00
2019-05-23T12:04:02.044Z,97221.00
2019-05-23T12:06:33.798Z,97221.00
2019-05-23T12:09:04.764Z,97214.00
2019-05-23T12:11:39.452Z,97217.00
2019-05-23T12:14:07.635Z,97216.00
2019-05-23T12:16:38.238Z,97213.00
2019-05-23T12:19:07.998Z,97219.00
2019-05-23T12:21:37.879Z,97213.00
2019-05-23T12:24:07.999Z,97217.00
2019-05-23T12:26:38.002Z,97208.00
2019-05-23T12:29:07.768Z,97206.00
2019-05-23T12:31:37.640Z,97201.00
2019-05-23T12:34:07.405Z,97207.00
2019-05-23T12:36:37.782Z,97195.00
2019-05-23T12:39:09.444Z,97194.00
2019-05-23T12:41:41.245Z,97191.00
2019-05-23T12:44:11.126Z,97180.00
2019-05-23T12:46:41.256Z,97186.00
2019-05-23T12:49:18.359Z,97188.00
2019-05-23T12:51:48.325Z,97183.00
2019-05-23T12:54:18.329Z,97178.00
2019-05-23T12:56:49.181Z,97183.00
2019-05-23T12:59:19.419Z,97180.00
2019-05-23T13:01:51.348Z,97172.00
2019-05-23T13:04:22.412Z,97172.00
2019-05-23T13:06:52.660Z,97178.00
2019-05-23T13:09:22.542Z,97181.00
2019-05-23T13:11:52.659Z,97173.00
2019-05-23T13:14:22.898Z,97174.00
2019-05-23T13:16:53.155Z,97175.00
2019-05-23T13:19:23.739Z,97162.00
2019-05-23T13:21:53.498Z,97166.00
2019-05-23T13:24:23.625Z,97159.00
2019-05-23T13:26:53.861Z,97159.00
2019-05-23T13:29:24.936Z,97162.00
2019-05-23T13:31:55.066Z,97152.00
2019-05-23T13:34:25.376Z,97157.00
2019-05-23T13:36:55.567Z,97154.00
2019-05-23T13:39:26.383Z,97156.00
2019-05-23T13:41:56.383Z,97154.00
2019-05-23T13:44:33.799Z,97158.00
2019-05-23T13:46:59.444Z,97149.00
2019-05-23T13:49:29.867Z,97153.00
2019-05-23T13:51:59.988Z,97153.00
2019-05-23T13:54:30.242Z,97152.00
2019-05-23T13:57:00.589Z,97159.00
2019-05-23T13:59:30.832Z,97160.00
2019-05-23T14:02:00.601Z,97154.00
2019-05-23T14:04:30.715Z,97141.00
2019-05-23T14:07:00.476Z,97138.00
2019-05-23T14:09:31.566Z,97149.00
2019-05-23T14:12:22.316Z,97142.00
2019-05-23T14:14:33.473Z,97136.00
2019-05-23T14:17:04.795Z,97140.00
2019-05-23T14:19:35.039Z,97140.00
2019-05-23T14:22:05.158Z,97143.00
2019-05-23T14:24:37.955Z,97142.00
2019-05-23T14:27:23.639Z,97140.00
2019-05-23T14:29:53.879Z,97140.00
2019-05-23T14:32:27.846Z,97138.00
2019-05-23T14:34:58.200Z,97135.00
2019-05-23T14:37:32.647Z,97126.00
2019-05-23T14:40:04.443Z,97132.00
2019-05-23T14:42:45.489Z,97131.00
2019-05-23T14:45:33.969Z,97114.00
2019-05-23T14:48:21.367Z,97114.00
2019-05-23T14:50:59.176Z,97114.00
2019-05-23T14:53:30.968Z,97119.00
2019-05-23T14:56:00.853Z,97117.00
2019-05-23T14:58:31.209Z,97114.00
2019-05-23T15:01:01.573Z,97120.00
2019-05-23T15:03:35.544Z,97113.00
2019-05-23T15:06:04.467Z,97103.00
2019-05-23T15:08:50.694Z,97102.00
2019-05-23T15:11:06.630Z,97103.00
2019-05-23T15:13:36.625Z,97104.00
2019-05-23T15:16:06.856Z,97112.00
2019-05-23T15:18:37.103Z,97101.00
2019-05-23T15:21:07.347Z,97111.00
2019-05-23T15:23:37.468Z,97106.00
2019-05-23T15:26:21.630Z,97097.00
2019-05-23T15:28:38.776Z,97100.00
2019-05-23T15:31:09.258Z,97103.00
2019-05-23T15:33:39.273Z,97104.00
2019-05-23T15:36:09.862Z,97092.00
2019-05-23T15:38:39.866Z,97094.00
2019-05-23T15:41:10.021Z,97096.00
2019-05-23T15:43:40.109Z,97091.00
2019-05-23T15:46:09.867Z,97085.00
2019-05-23T15:48:40.228Z,97088.00
2019-05-23T15:51:11.791Z,97086.00
2019-05-23T15:53:49.358Z,97083.00
2019-05-23T15:56:36.273Z,97082.00
2019-05-23T15:59:25.347Z,97083.00
2019-05-23T16:01:57.036Z,97087.00
2019-05-23T16:04:27.033Z,97086.00
2019-05-23T16:06:58.488Z,97095.00
2019-05-23T16:09:30.880Z,97095.00
2019-05-23T16:12:00.614Z,97078.00
2019-05-23T16:14:31.846Z,97083.00
2019-05-23T16:17:01.596Z,97078.00
2019-05-23T16:19:31.595Z,97083.00
2019-05-23T16:22:01.969Z,97083.00
2019-05-23T16:24:32.942Z,97077.00
2019-05-23T16:27:03.291Z,97074.00
2019-05-23T16:29:34.242Z,97079.00
2019-05-23T16:32:04.132Z,97079.00
2019-05-23T16:34:34.498Z,97082.00
2019-05-23T16:37:05.738Z,97081.00
2019-05-23T16:39:47.677Z,97078.00
2019-05-23T16:42:19.994Z,97077.00
2019-05-23T16:44:49.970Z,97085.00
2019-05-23T16:47:22.011Z,97084.00
2019-05-23T16:49:52.007Z,97086.00
2019-05-23T16:52:27.437Z,97086.00
2019-05-23T16:54:59.595Z,97082.00
2019-05-23T16:57:44.786Z,97080.00
2019-05-23T17:00:36.958Z,97083.00
2019-05-23T17:03:14.576Z,97084.00
2019-05-23T17:05:58.732Z,97075.00
2019-05-23T17:08:33.296Z,97078.00
2019-05-23T17:11:05.089Z,97076.00
2019-05-23T17:13:39.775Z,97085.00
2019-05-23T17:16:12.776Z,97078.00
2019-05-23T17:18:52.124Z,97086.00
2019-05-23T17:21:35.937Z,97094.00
2019-05-23T17:24:09.306Z,97091.00
2019-05-23T17:26:55.975Z,97085.00
2019-05-23T17:29:31.628Z,97078.00
2019-05-23T17:32:02.095Z,97087.00
2019-05-23T17:34:32.184Z,97087.00
2019-05-23T17:37:02.580Z,97092.00
2019-05-23T17:39:32.701Z,97088.00
2019-05-23T17:42:02.986Z,97089.00
2019-05-23T17:44:33.298Z,97075.00
2019-05-23T17:47:03.692Z,97077.00
2019-05-23T17:49:34.727Z,97081.00
2019-05-23T17:52:04.878Z,97072.00
2019-05-23T17:54:35.226Z,97080.00
2019-05-23T17:57:05.226Z,97082.00
2019-05-23T17:59:35.471Z,97079.00
2019-05-23T18:02:07.626Z,97082.00
2019-05-23T18:04:38.559Z,97079.00
2019-05-23T18:07:08.471Z,97081.00
2019-05-23T18:10:48.579Z,97081.00
2019-05-23T18:13:19.242Z,97085.00
2019-05-23T18:15:49.532Z,97085.00
2019-05-23T18:18:20.325Z,97081.00
2019-05-23T18:20:50.950Z,97086.00
2019-05-23T18:23:20.954Z,97088.00
2019-05-23T18:25:50.721Z,97081.00
2019-05-23T18:28:21.683Z,97087.00
2019-05-23T18:30:57.319Z,97089.00
2019-05-23T18:33:28.770Z,97078.00
2019-05-23T18:35:59.849Z,97087.00
2019-05-23T18:38:30.818Z,97081.00
2019-05-23T18:41:07.785Z,97088.00
2019-05-23T18:43:33.563Z,97089.00
2019-05-23T18:46:05.390Z,97080.00
2019-05-23T18:48:36.105Z,97083.00
2019-05-23T18:51:06.732Z,97085.00
2019-05-23T18:53:37.184Z,97090.00
2019-05-23T18:56:07.531Z,97098.00
2019-05-23T18:58:37.910Z,97090.00
2019-05-23T19:01:12.133Z,97096.00
2019-05-23T19:03:42.416Z,97095.00
2019-05-23T19:06:12.213Z,97094.00
2019-05-23T19:08:42.212Z,97107.00
2019-05-23T19:11:20.660Z,97106.00
2019-05-23T19:13:44.826Z,97112.00
2019-05-23T19:16:14.506Z,97107.00
2019-05-23T19:18:45.090Z,97116.00
2019-05-23T19:21:16.280Z,97117.00
2019-05-23T19:23:46.772Z,97114.00
2019-05-23T19:26:16.995Z,97111.00
2019-05-23T19:28:48.481Z,97110.00
2019-05-23T19:31:18.701Z,97121.00
2019-05-23T19:33:49.520Z,97115.00
2019-05-23T19:36:19.887Z,97114.00
2019-05-23T19:38:51.380Z,97108.00
2019-05-23T19:41:36.293Z,97105.00
2019-05-23T19:43:57.139Z,97103.00
2019-05-23T19:46:27.339Z,97105.00
2019-05-23T19:48:57.682Z,97110.00
2019-05-23T19:51:27.448Z,97108.00
2019-05-23T19:53:58.005Z,97109.00
2019-05-23T19:56:27.379Z,97114.00
2019-05-23T19:58:57.765Z,97105.00
2019-05-23T20:01:31.973Z,97109.00
2019-05-23T20:04:00.843Z,97109.00
2019-05-23T20:06:32.194Z,97111.00
2019-05-23T20:09:02.103Z,97106.00
2019-05-23T20:11:31.690Z,97105.00
2019-05-23T20:14:01.481Z,97115.00
2019-05-23T20:16:31.391Z,97113.00
2019-05-23T20:19:01.213Z,97117.00
2019-05-23T20:21:30.726Z,97108.00
2019-05-23T20:24:00.315Z,97116.00
2019-05-23T20:26:29.665Z,97117.00
2019-05-23T20:29:03.157Z,97111.00
2019-05-23T20:31:31.020Z,97105.00
2019-05-23T20:34:00.564Z,97125.00
2019-05-23T20:36:30.051Z,97124.00
2019-05-23T20:38:59.598Z,97116.00
2019-05-23T20:41:29.517Z,97123.00
2019-05-23T20:43:59.311Z,97126.00
2019-05-23T20:46:28.903Z,97124.00
2019-05-23T20:48:58.375Z,97118.00
2019-05-23T20:51:28.154Z,97116.00
2019-05-23T20:53:57.847Z,97112.00
2019-05-23T20:56:27.570Z,97117.00
2019-05-23T20:58:57.334Z,97114.00
2019-05-23T21:01:31.391Z,97115.00
2019-05-23T21:04:00.907Z,97105.00
2019-05-23T21:06:30.398Z,97114.00
2019-05-23T21:08:59.944Z,97103.00
2019-05-23T21:11:29.611Z,97105.00
2019-05-23T21:13:59.190Z,97103.00
2019-05-23T21:16:30.465Z,97113.00
2019-05-23T21:19:00.037Z,97101.00
2019-05-23T21:21:29.575Z,97104.00
2019-05-23T21:23:59.515Z,97098.00
2019-05-23T21:26:29.515Z,97100.00
2019-05-23T21:28:59.118Z,97096.00
2019-05-23T21:31:28.663Z,97102.00
2019-05-23T21:34:00.188Z,97102.00
2019-05-23T21:36:30.011Z,97097.00
2019-05-23T21:39:00.251Z,97100.00
2019-05-23T21:41:30.135Z,97101.00
2019-05-23T21:44:00.271Z,97097.00
2019-05-23T21:46:29.712Z,97099.00
2019-05-23T21:48:59.477Z,97105.00
2019-05-23T21:51:28.984Z,97104.00
2019-05-23T21:53:58.767Z,97111.00
2019-05-23T21:56:28.508Z,97103.00
2019-05-23T21:58:58.160Z,97114.00
2019-05-23T22:01:29.754Z,97107.00
2019-05-23T22:04:03.679Z,97115.00
2019-05-23T22:06:35.118Z,97118.00
2019-05-23T22:09:08.119Z,97101.00
2019-05-23T22:11:37.708Z,97103.00
2019-05-23T22:14:07.462Z,97114.00
2019-05-23T22:16:37.456Z,97107.00
2019-05-23T22:19:09.174Z,97100.00
2019-05-23T22:21:38.697Z,97103.00
2019-05-23T22:24:08.635Z,97107.00
2019-05-23T22:26:40.208Z,97104.00
2019-05-23T22:29:09.686Z,97099.00
2019-05-23T22:31:39.519Z,97106.00
2019-05-23T22:34:10.940Z,97104.00
2019-05-23T22:36:40.755Z,97105.00
2019-05-23T22:39:10.445Z,97102.00
2019-05-23T22:41:39.951Z,97097.00
2019-05-23T22:44:10.006Z,97095.00
2019-05-23T22:46:40.076Z,97099.00
2019-05-23T22:49:09.558Z,97095.00
2019-05-23T22:51:39.071Z,97092.00
2019-05-23T22:54:08.927Z,97104.00
2019-05-23T22:56:38.437Z,97102.00
2019-05-23T22:59:08.052Z,97095.00
2019-05-23T23:01:38.065Z,97102.00
2019-05-23T23:04:08.416Z,97099.00
2019-05-23T23:06:38.327Z,97098.00
2019-05-23T23:09:08.231Z,97091.00
2019-05-23T23:11:37.684Z,97096.00
2019-05-23T23:14:07.537Z,97093.00
2019-05-23T23:16:37.388Z,97098.00
2019-05-23T23:19:07.030Z,97096.00
2019-05-23T23:21:37.221Z,97088.00
2019-05-23T23:24:07.533Z,97089.00
2019-05-23T23:26:37.322Z,97089.00
2019-05-23T23:29:07.746Z,97084.00
2019-05-23T23:31:37.604Z,97089.00
2019-05-23T23:34:07.137Z,97076.00
2019-05-23T23:36:37.015Z,97082.00
2019-05-23T23:39:08.568Z,97084.00
2019-05-23T23:41:38.372Z,97079.00
2019-05-23T23:44:08.940Z,97077.00
2019-05-23T23:46:56.719Z,97084.00
2019-05-23T23:49:43.970Z,97082.00
2019-05-23T23:52:31.523Z,97069.00
2019-05-23T23:55:19.329Z,97079.00
2019-05-23T23:58:00.121Z,97071.00
